Time;durP1;ratioP1;P1;durP2;ratioP2;P2;SDS_P1;SDS_P2;PMS_P1;PMS_P2;Temp;Humidity;BMP_temperature;BMP_pressure;BME280_temperature;BME280_humidity;BME280_pressure;Samples;Min_cycle;Max_cycle;Signal;HPM_P1;HPM_P2
2022/07/28 00:01:29;;;;;;;6.53;1.48;;;;;;;;;;5011972;28;20050;-76
2022/07/28 00:03:55;;;;;;;4.95;1.40;;;;;;;;;;5010574;28;20053;-77
2022/07/28 00:06:21;;;;;;;6.03;1.30;;;;;;;;;;5010911;28;20046;-77
2022/07/28 00:08:48;;;;;;;7.03;1.70;;;;;;;;;;5012591;28;20050;-77
2022/07/28 00:11:15;;;;;;;3.65;1.40;;;;;;;;;;5012660;28;20042;-77
2022/07/28 00:13:41;;;;;;;4.30;1.80;;;;;;;;;;5011952;28;20092;-77
2022/07/28 00:16:08;;;;;;;5.40;1.45;;;;;;;;;;5012971;28;20192;-77
2022/07/28 00:18:37;;;;;;;5.32;1.65;;;;;;;;;;5010387;28;20126;-76
2022/07/28 00:21:03;;;;;;;5.25;1.55;;;;;;;;;;5012033;28;20053;-77
2022/07/28 00:23:30;;;;;;;4.93;1.60;;;;;;;;;;5013299;28;20054;-77
2022/07/28 00:26:05;;;;;;;5.57;1.57;;;;;;;;;;5012606;28;20412;-77
2022/07/28 00:28:31;;;;;;;6.57;1.77;;;;;;;;;;4994313;28;20566;-77
2022/07/28 00:30:57;;;;;;;11.15;1.67;;;;;;;;;;5010984;28;20064;-77
2022/07/28 00:33:35;;;;;;;5.60;1.73;;;;;;;;;;5009915;28;20046;-77
2022/07/28 00:36:02;;;;;;;6.47;1.52;;;;;;;;;;5011161;28;20049;-76
2022/07/28 00:38:29;;;;;;;5.25;1.63;;;;;;;;;;5011792;28;20189;-77
2022/07/28 00:41:10;;;;;;;2.75;1.45;;;;;;;;;;5011776;28;20116;-78
2022/07/28 00:43:37;;;;;;;5.35;1.67;;;;;;;;;;5010814;28;20518;-77
2022/07/28 00:46:03;;;;;;;9.70;2.25;;;;;;;;;;5011704;28;20469;-78
2022/07/28 00:48:29;;;;;;;7.78;2.08;;;;;;;;;;5009469;28;20521;-76
2022/07/28 00:50:56;;;;;;;6.65;1.70;;;;;;;;;;5010669;28;20073;-77
2022/07/28 00:53:23;;;;;;;5.72;1.92;;;;;;;;;;5011310;28;20049;-78
2022/07/28 00:55:49;;;;;;;5.43;1.80;;;;;;;;;;5011184;28;20133;-77
2022/07/28 00:58:32;;;;;;;6.57;1.70;;;;;;;;;;5010885;28;20100;-77
2022/07/28 01:00:58;;;;;;;6.90;1.90;;;;;;;;;;5011223;28;20142;-76
2022/07/28 01:03:25;;;;;;;8.00;1.67;;;;;;;;;;5008722;28;20328;-76
2022/07/28 01:06:04;;;;;;;5.30;1.67;;;;;;;;;;4992439;28;20058;-77
2022/07/28 01:08:37;;;;;;;9.95;1.90;;;;;;;;;;5011521;28;20092;-77
2022/07/28 01:11:05;;;;;;;6.55;2.20;;;;;;;;;;5011138;28;20144;-77
2022/07/28 01:13:50;;;;;;;4.15;1.98;;;;;;;;;;5010296;28;20054;-76
2022/07/28 01:16:17;;;;;;;5.60;1.80;;;;;;;;;;5011229;28;20104;-76
2022/07/28 01:19:03;;;;;;;7.65;1.95;;;;;;;;;;5007918;28;20042;-76
2022/07/28 01:21:33;;;;;;;7.00;2.33;;;;;;;;;;5009112;28;20136;-77
2022/07/28 01:24:19;;;;;;;7.68;2.45;;;;;;;;;;5010300;28;20574;-77
2022/07/28 01:26:48;;;;;;;5.32;1.95;;;;;;;;;;5010551;28;20061;-77
2022/07/28 01:29:31;;;;;;;6.07;1.98;;;;;;;;;;5009930;28;20077;-76
2022/07/28 01:32:27;;;;;;;9.35;2.00;;;;;;;;;;5009151;28;20088;-76
2022/07/28 01:35:08;;;;;;;6.32;2.17;;;;;;;;;;5007694;28;20054;-77
2022/07/28 01:37:39;;;;;;;7.35;2.33;;;;;;;;;;5010098;28;20053;-76
2022/07/28 01:40:08;;;;;;;9.60;2.25;;;;;;;;;;5010932;28;20089;-76
2022/07/28 01:42:40;;;;;;;4.00;2.10;;;;;;;;;;5009456;28;20518;-77
2022/07/28 01:45:07;;;;;;;5.60;2.00;;;;;;;;;;5010013;28;20050;-76
2022/07/28 01:47:34;;;;;;;4.20;1.83;;;;;;;;;;4992067;28;20069;-77
2022/07/28 01:50:05;;;;;;;8.48;1.98;;;;;;;;;;5008276;28;20092;-76
2022/07/28 01:52:33;;;;;;;4.63;1.95;;;;;;;;;;5008842;28;20371;-76
2022/07/28 01:55:00;;;;;;;5.93;2.20;;;;;;;;;;5010308;28;20046;-77
2022/07/28 01:57:31;;;;;;;4.68;2.03;;;;;;;;;;5010148;28;20049;-77
2022/07/28 01:59:58;;;;;;;7.95;1.70;;;;;;;;;;5009287;28;20149;-77
2022/07/28 02:02:26;;;;;;;6.25;2.40;;;;;;;;;;5008567;28;20062;-76
2022/07/28 02:04:53;;;;;;;4.53;2.00;;;;;;;;;;5008171;28;20130;-79
2022/07/28 02:07:21;;;;;;;5.47;1.92;;;;;;;;;;5009761;28;20120;-75
2022/07/28 02:09:48;;;;;;;4.70;1.70;;;;;;;;;;5010418;28;20061;-76
2022/07/28 02:12:16;;;;;;;4.43;1.98;;;;;;;;;;5009256;28;20481;-77
2022/07/28 02:14:45;;;;;;;6.82;2.03;;;;;;;;;;5009208;28;20141;-77
2022/07/28 02:17:15;;;;;;;4.45;1.92;;;;;;;;;;5009796;28;20077;-77
2022/07/28 02:19:43;;;;;;;6.22;2.20;;;;;;;;;;5007140;28;20088;-77
2022/07/28 02:22:10;;;;;;;5.70;1.90;;;;;;;;;;5008772;28;20081;-77
2022/07/28 02:24:37;;;;;;;7.13;2.50;;;;;;;;;;5008943;28;20100;-79
2022/07/28 02:27:19;;;;;;;7.43;2.53;;;;;;;;;;5009872;28;20045;-77
2022/07/28 02:29:51;;;;;;;4.82;2.47;;;;;;;;;;5009041;28;20136;-76
2022/07/28 02:32:20;;;;;;;5.88;2.13;;;;;;;;;;5009157;28;20088;-77
2022/07/28 02:34:57;;;;;;;10.85;2.40;;;;;;;;;;5007472;28;20137;-76
2022/07/28 02:37:24;;;;;;;5.15;2.40;;;;;;;;;;5009202;28;20054;-76
2022/07/28 02:39:52;;;;;;;9.68;2.63;;;;;;;;;;5009080;28;20077;-76
2022/07/28 02:42:29;;;;;;;4.80;2.38;;;;;;;;;;5008979;28;20064;-76
2022/07/28 02:44:57;;;;;;;9.27;2.10;;;;;;;;;;5008887;28;20538;-76
2022/07/28 02:47:25;;;;;;;8.32;2.00;;;;;;;;;;5008875;28;20102;-76
2022/07/28 02:49:53;;;;;;;5.47;2.00;;;;;;;;;;5007129;28;20494;-76
2022/07/28 02:52:22;;;;;;;4.82;2.30;;;;;;;;;;5007102;28;20104;-76
2022/07/28 02:54:50;;;;;;;3.92;2.05;;;;;;;;;;5008910;28;20042;-76
2022/07/28 02:57:17;;;;;;;6.25;2.35;;;;;;;;;;5009337;28;20070;-77
2022/07/28 02:59:44;;;;;;;6.63;2.00;;;;;;;;;;5008908;28;20121;-77
2022/07/28 03:02:12;;;;;;;3.33;1.92;;;;;;;;;;5008341;28;20081;-76
2022/07/28 03:07:25;;;;;;;4.13;2.00;;;;;;;;;;5008839;28;20132;-77
2022/07/28 03:09:51;;;;;;;6.88;2.20;;;;;;;;;;5007848;28;20093;-76
2022/07/28 03:12:18;;;;;;;5.35;2.40;;;;;;;;;;5008531;28;20088;-76
2022/07/28 03:14:44;;;;;;;2.90;2.00;;;;;;;;;;5008395;28;20060;-76
2022/07/28 03:17:11;;;;;;;4.20;1.90;;;;;;;;;;5008710;28;20085;-77
2022/07/28 03:19:38;;;;;;;6.20;2.00;;;;;;;;;;5010467;28;20132;-77
2022/07/28 03:22:04;;;;;;;5.82;2.15;;;;;;;;;;5021700;28;20116;-76
2022/07/28 03:24:36;;;;;;;4.82;2.40;;;;;;;;;;5022731;28;20045;-77
2022/07/28 03:27:12;;;;;;;4.00;2.10;;;;;;;;;;5011862;28;20161;-78
2022/07/28 03:29:39;;;;;;;6.00;2.40;;;;;;;;;;5009346;28;20072;-77
2022/07/28 03:32:06;;;;;;;6.50;2.33;;;;;;;;;;5009108;28;20058;-77
2022/07/28 03:34:33;;;;;;;4.22;2.05;;;;;;;;;;5007305;28;20554;-76
2022/07/28 03:37:05;;;;;;;4.40;2.35;;;;;;;;;;5008260;28;20080;-78
2022/07/28 03:39:34;;;;;;;7.15;2.38;;;;;;;;;;5010286;28;20148;-78
2022/07/28 03:42:02;;;;;;;8.75;2.92;;;;;;;;;;5011777;28;20054;-77
2022/07/28 03:44:29;;;;;;;4.43;2.30;;;;;;;;;;5017018;28;20197;-78
2022/07/28 03:46:55;;;;;;;6.25;2.47;;;;;;;;;;5014468;28;20049;-77
2022/07/28 03:49:24;;;;;;;8.27;2.67;;;;;;;;;;5010532;28;20050;-78
2022/07/28 03:51:50;;;;;;;10.98;3.15;;;;;;;;;;5011311;28;20141;-77
2022/07/28 03:54:17;;;;;;;7.72;2.70;;;;;;;;;;5012313;28;20117;-77
2022/07/28 03:56:43;;;;;;;6.03;2.88;;;;;;;;;;5012302;28;20570;-77
2022/07/28 03:59:10;;;;;;;5.80;2.70;;;;;;;;;;5012021;28;20078;-77
2022/07/28 04:01:37;;;;;;;5.88;2.63;;;;;;;;;;5011796;28;20105;-76
2022/07/28 04:04:04;;;;;;;4.22;2.20;;;;;;;;;;5010043;28;20077;-77
2022/07/28 04:06:30;;;;;;;5.47;1.98;;;;;;;;;;5010378;28;20136;-75
2022/07/28 04:08:57;;;;;;;9.07;2.92;;;;;;;;;;5011759;28;20081;-78
2022/07/28 04:11:23;;;;;;;5.60;2.70;;;;;;;;;;5012120;28;20260;-77
2022/07/28 04:13:50;;;;;;;6.65;2.58;;;;;;;;;;5011231;28;20517;-77
2022/07/28 04:16:16;;;;;;;4.13;2.05;;;;;;;;;;5011961;28;20042;-76
2022/07/28 04:18:43;;;;;;;6.55;2.20;;;;;;;;;;5010158;28;20049;-76
2022/07/28 04:21:09;;;;;;;5.45;2.35;;;;;;;;;;5011135;28;20050;-75
2022/07/28 04:23:36;;;;;;;8.80;2.25;;;;;;;;;;5011675;28;20130;-77
2022/07/28 04:26:02;;;;;;;6.35;2.53;;;;;;;;;;5011799;28;20100;-77
2022/07/28 04:28:29;;;;;;;7.32;2.10;;;;;;;;;;5011548;28;20073;-77
2022/07/28 04:30:55;;;;;;;3.47;2.13;;;;;;;;;;5016146;28;20050;-79
2022/07/28 04:33:22;;;;;;;4.03;2.15;;;;;;;;;;5020428;28;20054;-79
2022/07/28 04:35:51;;;;;;;6.95;2.50;;;;;;;;;;5024237;28;20471;-78
2022/07/28 04:38:19;;;;;;;9.05;2.50;;;;;;;;;;5022077;28;20061;-79
2022/07/28 04:40:48;;;;;;;4.72;2.03;;;;;;;;;;5021263;28;20114;-78
2022/07/28 04:43:15;;;;;;;6.90;2.72;;;;;;;;;;5022551;28;20045;-78
2022/07/28 04:45:41;;;;;;;4.75;2.50;;;;;;;;;;5023582;28;20076;-78
2022/07/28 04:48:19;;;;;;;6.32;2.85;;;;;;;;;;5021827;28;20088;-79
2022/07/28 04:50:46;;;;;;;9.52;2.72;;;;;;;;;;5021629;28;20169;-79
2022/07/28 04:53:12;;;;;;;12.13;3.17;;;;;;;;;;5020267;28;20060;-79
2022/07/28 04:55:39;;;;;;;6.50;3.35;;;;;;;;;;5020999;28;20054;-79
2022/07/28 04:58:07;;;;;;;5.05;2.85;;;;;;;;;;5020511;28;20046;-80
2022/07/28 05:00:34;;;;;;;15.10;4.55;;;;;;;;;;5021237;28;20076;-77
2022/07/28 05:03:02;;;;;;;13.05;5.45;;;;;;;;;;5017718;28;20050;-80
2022/07/28 05:05:28;;;;;;;12.75;3.55;;;;;;;;;;5022724;28;20100;-78
2022/07/28 05:07:55;;;;;;;7.20;3.20;;;;;;;;;;5023786;28;20054;-78
2022/07/28 05:10:22;;;;;;;10.32;4.80;;;;;;;;;;5024100;28;20097;-78
2022/07/28 05:12:49;;;;;;;13.27;5.10;;;;;;;;;;5020086;28;20057;-79
2022/07/28 05:15:15;;;;;;;10.95;3.88;;;;;;;;;;5019838;28;20056;-79
2022/07/28 05:17:42;;;;;;;7.63;3.08;;;;;;;;;;5022398;28;20054;-78
2022/07/28 05:20:09;;;;;;;8.50;3.20;;;;;;;;;;5017522;28;20589;-78
2022/07/28 05:22:44;;;;;;;8.25;2.97;;;;;;;;;;5021008;28;20046;-79
2022/07/28 05:25:11;;;;;;;;;;;;;;;;;;5022182;28;20057;-79
2022/07/28 05:27:37;;;;;;;7.47;2.67;;;;;;;;;;5021936;28;19921;-79
2022/07/28 05:30:04;;;;;;;5.68;2.78;;;;;;;;;;5019358;28;20050;-78
2022/07/28 05:32:30;;;;;;;10.48;3.10;;;;;;;;;;5019014;28;20085;-79
2022/07/28 05:34:58;;;;;;;5.28;2.45;;;;;;;;;;5017938;28;20073;-78
2022/07/28 05:37:24;;;;;;;7.95;2.90;;;;;;;;;;5019205;28;20050;-78
2022/07/28 05:39:51;;;;;;;8.55;2.75;;;;;;;;;;5003224;28;20080;-78
2022/07/28 05:42:17;;;;;;;10.27;2.47;;;;;;;;;;5019878;28;20505;-77
2022/07/28 05:44:43;;;;;;;7.10;2.88;;;;;;;;;;5017276;28;20088;-78
2022/07/28 05:47:10;;;;;;;9.05;2.70;;;;;;;;;;5020234;28;20054;-78
2022/07/28 05:49:37;;;;;;;9.25;2.75;;;;;;;;;;5022233;28;20053;-78
2022/07/28 05:52:04;;;;;;;7.07;2.85;;;;;;;;;;5021333;28;20092;-79
2022/07/28 05:54:30;;;;;;;6.65;2.22;;;;;;;;;;5019139;28;20053;-78
2022/07/28 05:56:57;;;;;;;7.07;2.88;;;;;;;;;;5019092;28;20411;-77
2022/07/28 05:59:23;;;;;;;7.80;2.35;;;;;;;;;;5018263;28;20049;-78
2022/07/28 06:01:49;;;;;;;5.63;2.10;;;;;;;;;;5017775;28;20050;-79
2022/07/28 06:04:16;;;;;;;9.00;2.50;;;;;;;;;;5013940;28;20132;-77
2022/07/28 06:06:53;;;;;;;5.72;2.20;;;;;;;;;;5016617;28;20422;-79
2022/07/28 06:09:20;;;;;;;8.27;2.35;;;;;;;;;;5015498;28;20498;-77
2022/07/28 06:11:46;;;;;;;7.20;2.30;;;;;;;;;;5015548;28;20453;-79
2022/07/28 06:14:12;;;;;;;5.50;1.90;;;;;;;;;;5015675;28;20531;-78
2022/07/28 06:16:39;;;;;;;7.75;2.00;;;;;;;;;;5019259;28;20050;-79
2022/07/28 06:19:06;;;;;;;5.50;2.28;;;;;;;;;;5018162;28;20050;-80
2022/07/28 06:21:33;;;;;;;5.70;2.03;;;;;;;;;;5016396;28;20042;-78
2022/07/28 06:23:59;;;;;;;8.45;2.30;;;;;;;;;;5017906;28;20085;-78
2022/07/28 06:26:26;;;;;;;3.97;1.73;;;;;;;;;;5018285;28;20442;-80
2022/07/28 06:28:52;;;;;;;9.57;1.90;;;;;;;;;;5016023;28;20049;-79
2022/07/28 06:31:18;;;;;;;9.38;2.15;;;;;;;;;;5015601;28;20046;-78
2022/07/28 06:33:45;;;;;;;6.00;1.83;;;;;;;;;;5013153;28;20060;-77
2022/07/28 06:36:11;;;;;;;6.85;1.90;;;;;;;;;;5016169;28;20045;-78
2022/07/28 06:38:38;;;;;;;8.65;2.35;;;;;;;;;;5018593;28;20065;-79
2022/07/28 06:41:04;;;;;;;11.70;2.30;;;;;;;;;;5017920;28;20489;-77
2022/07/28 06:43:31;;;;;;;9.15;2.13;;;;;;;;;;5020284;28;20049;-78
2022/07/28 06:46:04;;;;;;;11.50;2.30;;;;;;;;;;5020250;28;20057;-79
2022/07/28 06:48:30;;;;;;;7.70;1.90;;;;;;;;;;5018437;28;20053;-78
2022/07/28 06:50:58;;;;;;;10.70;2.20;;;;;;;;;;5019406;28;20276;-79
2022/07/28 06:53:25;;;;;;;8.32;2.15;;;;;;;;;;5020277;28;20081;-77
2022/07/28 06:55:57;;;;;;;10.48;2.45;;;;;;;;;;5019896;28;20050;-79
2022/07/28 06:58:24;;;;;;;6.43;2.13;;;;;;;;;;5018732;28;20085;-78
2022/07/28 07:00:50;;;;;;;7.13;2.13;;;;;;;;;;5023579;28;20046;-80
2022/07/28 07:03:17;;;;;;;5.45;2.22;;;;;;;;;;5026801;28;20080;-78
2022/07/28 07:05:43;;;;;;;6.47;2.08;;;;;;;;;;5024862;28;20078;-79
2022/07/28 07:08:14;;;;;;;8.73;2.28;;;;;;;;;;5019757;28;20052;-79
2022/07/28 07:10:40;;;;;;;6.97;2.08;;;;;;;;;;5019657;28;20046;-78
2022/07/28 07:13:07;;;;;;;11.00;2.40;;;;;;;;;;5020715;28;20056;-78
2022/07/28 07:15:33;;;;;;;8.23;2.10;;;;;;;;;;5022062;28;20052;-78
2022/07/28 07:18:00;;;;;;;6.25;2.28;;;;;;;;;;5021968;28;20053;-78
2022/07/28 07:20:27;;;;;;;9.57;2.40;;;;;;;;;;5022525;28;20046;-79
2022/07/28 07:22:54;;;;;;;12.93;2.42;;;;;;;;;;5023302;28;20053;-78
2022/07/28 07:25:20;;;;;;;7.13;2.35;;;;;;;;;;5022125;28;20487;-78
2022/07/28 07:27:47;;;;;;;5.53;2.25;;;;;;;;;;5019993;28;20091;-79
2022/07/28 07:30:14;;;;;;;6.78;2.17;;;;;;;;;;5024747;28;20050;-78
2022/07/28 07:32:41;;;;;;;6.55;2.10;;;;;;;;;;5020674;28;20426;-78
2022/07/28 07:35:08;;;;;;;9.52;2.38;;;;;;;;;;5004255;28;20100;-78
2022/07/28 07:37:34;;;;;;;7.32;1.77;;;;;;;;;;5020432;28;20081;-79
2022/07/28 07:40:02;;;;;;;6.18;1.85;;;;;;;;;;5021333;28;20053;-77
2022/07/28 07:42:29;;;;;;;9.25;2.20;;;;;;;;;;5019255;28;20069;-77
2022/07/28 07:44:55;;;;;;;11.85;2.00;;;;;;;;;;5017466;28;20116;-78
2022/07/28 07:47:21;;;;;;;5.57;1.83;;;;;;;;;;5019615;28;20485;-78
2022/07/28 07:49:48;;;;;;;10.80;2.05;;;;;;;;;;5015161;28;20056;-79
2022/07/28 07:52:14;;;;;;;5.72;1.83;;;;;;;;;;5020360;28;20064;-78
2022/07/28 07:54:41;;;;;;;7.57;1.77;;;;;;;;;;5019045;28;20053;-77
2022/07/28 07:57:08;;;;;;;6.13;1.95;;;;;;;;;;5018920;28;20128;-78
2022/07/28 07:59:34;;;;;;;8.40;1.80;;;;;;;;;;5021901;28;20050;-78
2022/07/28 08:02:01;;;;;;;6.20;1.75;;;;;;;;;;5021076;28;20049;-77
2022/07/28 08:04:30;;;;;;;6.82;1.73;;;;;;;;;;5020645;28;20155;-78
2022/07/28 08:07:03;;;;;;;9.40;1.80;;;;;;;;;;5022620;28;20064;-79
2022/07/28 08:09:31;;;;;;;8.55;1.92;;;;;;;;;;5024934;28;20056;-78
2022/07/28 08:11:57;;;;;;;6.07;1.85;;;;;;;;;;5018466;28;20061;-78
2022/07/28 08:14:24;;;;;;;6.75;1.75;;;;;;;;;;5021496;28;20064;-78
2022/07/28 08:16:51;;;;;;;5.10;1.45;;;;;;;;;;5020554;28;20092;-77
2022/07/28 08:19:17;;;;;;;8.00;1.58;;;;;;;;;;5016027;28;20538;-77
2022/07/28 08:21:47;;;;;;;5.20;1.38;;;;;;;;;;5016521;28;20046;-79
2022/07/28 08:24:16;;;;;;;10.20;1.70;;;;;;;;;;5017717;28;20396;-77
2022/07/28 08:26:58;;;;;;;4.07;0.77;;;;;;;;;;5016216;28;20045;-78
2022/07/28 08:29:24;;;;;;;7.05;0.93;;;;;;;;;;5019115;28;20100;-79
2022/07/28 08:31:51;;;;;;;5.50;1.00;;;;;;;;;;5015695;28;20058;-77
2022/07/28 08:34:18;;;;;;;4.00;1.15;;;;;;;;;;5016447;28;20435;-79
2022/07/28 08:37:00;;;;;;;5.47;1.50;;;;;;;;;;5017369;28;20438;-77
2022/07/28 08:39:26;;;;;;;7.57;1.05;;;;;;;;;;5017344;28;20077;-79
2022/07/28 08:41:57;;;;;;;5.20;0.95;;;;;;;;;;5021239;28;20549;-77
2022/07/28 08:44:26;;;;;;;6.90;1.10;;;;;;;;;;5018902;28;20046;-78
2022/07/28 08:46:53;;;;;;;7.10;1.02;;;;;;;;;;5018239;28;20140;-79
2022/07/28 08:49:20;;;;;;;6.60;1.00;;;;;;;;;;5020671;28;20129;-77
2022/07/28 08:51:47;;;;;;;4.32;1.27;;;;;;;;;;5018988;28;20054;-77
2022/07/28 08:54:15;;;;;;;4.57;1.35;;;;;;;;;;5022857;28;20061;-78
2022/07/28 08:56:42;;;;;;;5.05;1.40;;;;;;;;;;5023847;28;20049;-78
2022/07/28 08:59:13;;;;;;;6.10;1.50;;;;;;;;;;5018885;28;20042;-78
2022/07/28 09:01:40;;;;;;;5.05;1.17;;;;;;;;;;5016921;28;20053;-77
2022/07/28 09:04:07;;;;;;;8.73;1.33;;;;;;;;;;5016155;28;20050;-77
2022/07/28 09:06:35;;;;;;;3.58;1.30;;;;;;;;;;5017164;28;20056;-79
2022/07/28 09:09:02;;;;;;;4.57;1.30;;;;;;;;;;5016661;28;20046;-77
2022/07/28 09:11:28;;;;;;;6.95;1.40;;;;;;;;;;5016981;28;20073;-78
2022/07/28 09:13:55;;;;;;;7.38;1.48;;;;;;;;;;5020528;28;20073;-77
2022/07/28 09:16:21;;;;;;;4.55;1.30;;;;;;;;;;5016137;28;20042;-76
2022/07/28 09:18:48;;;;;;;3.58;1.15;;;;;;;;;;5024268;28;20073;-78
2022/07/28 09:21:14;;;;;;;7.95;1.40;;;;;;;;;;5021400;28;20057;-78
2022/07/28 09:23:42;;;;;;;8.02;1.30;;;;;;;;;;5019186;28;20073;-78
2022/07/28 09:26:10;;;;;;;6.70;1.33;;;;;;;;;;5020073;28;20457;-78
2022/07/28 09:28:54;;;;;;;5.07;1.33;;;;;;;;;;5018143;28;20105;-78
2022/07/28 09:31:22;;;;;;;6.05;1.42;;;;;;;;;;5017745;28;20060;-78
2022/07/28 09:34:02;;;;;;;5.15;1.30;;;;;;;;;;5014523;28;20046;-78
2022/07/28 09:36:29;;;;;;;6.95;1.38;;;;;;;;;;5014774;28;20072;-78
2022/07/28 09:38:56;;;;;;;3.63;1.40;;;;;;;;;;5016883;28;20050;-78
2022/07/28 09:41:22;;;;;;;7.68;1.40;;;;;;;;;;5018986;28;20042;-77
2022/07/28 09:43:50;;;;;;;5.65;1.17;;;;;;;;;;5018144;28;20046;-77
2022/07/28 09:46:22;;;;;;;5.32;1.20;;;;;;;;;;5027760;28;20101;-77
2022/07/28 09:48:49;;;;;;;6.30;1.42;;;;;;;;;;5016564;28;20251;-78
2022/07/28 09:51:20;;;;;;;4.65;1.17;;;;;;;;;;5018511;28;20495;-78
2022/07/28 09:53:47;;;;;;;4.40;1.38;;;;;;;;;;5023293;28;20118;-78
2022/07/28 09:56:13;;;;;;;7.13;1.42;;;;;;;;;;5023937;28;20050;-77
2022/07/28 09:58:40;;;;;;;5.55;1.40;;;;;;;;;;5028343;28;20054;-78
2022/07/28 10:01:10;;;;;;;3.75;1.50;;;;;;;;;;5027036;28;20054;-78
2022/07/28 10:03:39;;;;;;;4.28;1.27;;;;;;;;;;5021415;28;20584;-78
2022/07/28 10:06:10;;;;;;;5.38;1.20;;;;;;;;;;5022680;28;20061;-78
2022/07/28 10:08:47;;;;;;;4.95;1.40;;;;;;;;;;5024880;28;20120;-78
2022/07/28 10:11:15;;;;;;;3.58;1.38;;;;;;;;;;5019390;28;20050;-78
2022/07/28 10:13:58;;;;;;;2.92;1.15;;;;;;;;;;5016194;28;20046;-79
2022/07/28 10:16:26;;;;;;;4.72;1.38;;;;;;;;;;5017428;28;20046;-78
2022/07/28 10:18:53;;;;;;;3.33;1.48;;;;;;;;;;5011993;28;20081;-78
2022/07/28 10:21:21;;;;;;;3.65;1.40;;;;;;;;;;5019878;28;20062;-77
2022/07/28 10:23:49;;;;;;;2.35;1.35;;;;;;;;;;5018408;28;20045;-78
2022/07/28 10:26:18;;;;;;;6.80;1.20;;;;;;;;;;5016034;28;20101;-79
2022/07/28 10:28:49;;;;;;;7.70;1.73;;;;;;;;;;5016667;28;20076;-79
2022/07/28 10:31:30;;;;;;;5.25;1.40;;;;;;;;;;5020168;28;20061;-79
2022/07/28 10:33:58;;;;;;;8.18;1.52;;;;;;;;;;5027077;28;20038;-79
2022/07/28 10:36:25;;;;;;;3.85;1.50;;;;;;;;;;5033325;28;20056;-78
2022/07/28 10:38:56;;;;;;;3.38;1.67;;;;;;;;;;5029578;28;20210;-78
2022/07/28 10:41:25;;;;;;;4.53;1.65;;;;;;;;;;5014454;28;20489;-77
2022/07/28 10:43:55;;;;;;;7.22;1.75;;;;;;;;;;5012660;28;20107;-78
2022/07/28 10:46:22;;;;;;;3.78;1.80;;;;;;;;;;5013673;28;20080;-78
2022/07/28 10:48:48;;;;;;;3.88;1.42;;;;;;;;;;5014520;28;20049;-78
2022/07/28 10:51:15;;;;;;;5.90;1.70;;;;;;;;;;4996622;28;20064;-78
2022/07/28 10:53:50;;;;;;;3.97;1.60;;;;;;;;;;5002434;28;20088;-78
2022/07/28 10:56:20;;;;;;;4.63;1.80;;;;;;;;;;5017901;28;20054;-78
2022/07/28 10:58:47;;;;;;;3.47;1.55;;;;;;;;;;5018858;28;20061;-79
2022/07/28 11:01:32;;;;;;;5.68;1.90;;;;;;;;;;5018804;28;20046;-78
2022/07/28 11:04:51;;;;;;;5.25;1.70;;;;;;;;;;5018244;28;20052;-79
2022/07/28 11:07:18;;;;;;;3.83;1.73;;;;;;;;;;4976303;28;20051;-77
2022/07/28 11:09:48;;;;;;;7.30;2.20;;;;;;;;;;5007011;28;20077;-78
2022/07/28 11:12:15;;;;;;;3.17;1.60;;;;;;;;;;5017065;28;20077;-78
2022/07/28 11:14:45;;;;;;;6.20;1.55;;;;;;;;;;5019307;28;20054;-78
2022/07/28 11:17:12;;;;;;;7.85;1.65;;;;;;;;;;5013934;28;20426;-77
2022/07/28 11:19:44;;;;;;;5.55;1.77;;;;;;;;;;5013084;28;20141;-78
2022/07/28 11:22:32;;;;;;;4.20;1.60;;;;;;;;;;5014634;28;20377;-78
2022/07/28 11:25:03;;;;;;;4.80;1.70;;;;;;;;;;5017909;28;20053;-78
2022/07/28 11:27:45;;;;;;;;;;;;;;;;;;5014231;28;20046;-78
2022/07/28 11:30:32;;;;;;;6.47;1.45;;;;;;;;;;4998050;28;19926;-78
2022/07/28 11:32:59;;;;;;;4.47;1.73;;;;;;;;;;5012484;28;20050;-79
2022/07/28 11:35:29;;;;;;;4.05;1.60;;;;;;;;;;5017560;28;20069;-78
2022/07/28 11:37:59;;;;;;;4.28;1.70;;;;;;;;;;5020059;28;20049;-78
2022/07/28 11:40:29;;;;;;;6.45;1.52;;;;;;;;;;5019707;28;20069;-79
2022/07/28 11:43:14;;;;;;;6.22;1.60;;;;;;;;;;5014993;28;20070;-77
2022/07/28 11:45:47;;;;;;;3.83;1.50;;;;;;;;;;5016074;28;20046;-77
2022/07/28 11:48:22;;;;;;;7.88;2.13;;;;;;;;;;5016237;28;20136;-77
2022/07/28 11:51:03;;;;;;;7.03;1.98;;;;;;;;;;5016542;28;20082;-77
2022/07/28 11:53:34;;;;;;;6.53;1.80;;;;;;;;;;5017221;28;20050;-78
2022/07/28 11:56:04;;;;;;;4.10;1.90;;;;;;;;;;5018720;28;20054;-79
2022/07/28 11:58:31;;;;;;;5.65;1.98;;;;;;;;;;5005922;28;20054;-78
2022/07/28 12:01:14;;;;;;;8.05;1.90;;;;;;;;;;5014168;28;20046;-77
2022/07/28 12:03:45;;;;;;;5.55;2.00;;;;;;;;;;5016768;28;20140;-77
2022/07/28 12:06:21;;;;;;;7.15;2.15;;;;;;;;;;5018974;28;20076;-77
2022/07/28 12:09:05;;;;;;;5.40;2.15;;;;;;;;;;5020646;28;20045;-77
2022/07/28 12:11:41;;;;;;;4.43;2.30;;;;;;;;;;5019131;28;20077;-77
2022/07/28 12:14:07;;;;;;;8.60;3.00;;;;;;;;;;5020870;28;20124;-78
2022/07/28 12:16:34;;;;;;;8.90;2.90;;;;;;;;;;5026786;28;20049;-77
2022/07/28 12:19:02;;;;;;;5.88;2.63;;;;;;;;;;5023358;28;20055;-77
2022/07/28 12:21:39;;;;;;;8.82;2.53;;;;;;;;;;5018418;28;20056;-77
2022/07/28 12:24:12;;;;;;;5.35;2.90;;;;;;;;;;5020654;28;20049;-78
2022/07/28 12:26:40;;;;;;;7.80;2.97;;;;;;;;;;5025367;28;20103;-78
2022/07/28 12:29:11;;;;;;;6.72;2.88;;;;;;;;;;5015877;28;20161;-78
2022/07/28 12:31:38;;;;;;;9.32;3.05;;;;;;;;;;5016291;28;20077;-78
2022/07/28 12:34:10;;;;;;;9.13;3.28;;;;;;;;;;5016608;28;20046;-78
2022/07/28 12:36:37;;;;;;;11.15;2.95;;;;;;;;;;5020158;28;20050;-78
2022/07/28 12:39:05;;;;;;;13.02;3.08;;;;;;;;;;5017339;28;20673;-78
2022/07/28 12:41:38;;;;;;;7.18;2.40;;;;;;;;;;5017894;28;20164;-78
2022/07/28 12:44:04;;;;;;;10.40;2.92;;;;;;;;;;5015753;28;20423;-78
2022/07/28 12:46:31;;;;;;;11.35;2.72;;;;;;;;;;5017571;28;20050;-78
2022/07/28 12:48:58;;;;;;;7.25;2.75;;;;;;;;;;5017932;28;20053;-78
2022/07/28 12:51:29;;;;;;;7.38;2.85;;;;;;;;;;5017982;28;20077;-77
2022/07/28 12:53:55;;;;;;;6.38;2.53;;;;;;;;;;5007619;28;20049;-78
2022/07/28 12:56:22;;;;;;;5.72;2.95;;;;;;;;;;5023581;28;20062;-79
2022/07/28 12:58:55;;;;;;;8.50;2.97;;;;;;;;;;5017867;28;20140;-77
2022/07/28 13:01:21;;;;;;;7.85;3.67;;;;;;;;;;5020165;28;20050;-78
2022/07/28 13:03:48;;;;;;;12.30;3.28;;;;;;;;;;5019402;28;20045;-78
2022/07/28 13:06:19;;;;;;;9.80;3.55;;;;;;;;;;5022158;28;20133;-78
2022/07/28 13:08:46;;;;;;;10.38;3.55;;;;;;;;;;5022617;28;20507;-78
2022/07/28 13:11:14;;;;;;;7.78;3.50;;;;;;;;;;5018369;28;20046;-78
2022/07/28 13:14:01;;;;;;;8.55;3.47;;;;;;;;;;5017857;28;20060;-78
2022/07/28 13:16:28;;;;;;;7.60;3.42;;;;;;;;;;5018470;28;20050;-77
2022/07/28 13:18:57;;;;;;;9.38;4.20;;;;;;;;;;5016669;28;20096;-78
2022/07/28 13:21:36;;;;;;;15.40;3.85;;;;;;;;;;5012632;28;20416;-78
2022/07/28 13:24:03;;;;;;;10.45;4.82;;;;;;;;;;5014011;28;20124;-77
2022/07/28 13:26:32;;;;;;;10.68;4.60;;;;;;;;;;5016119;28;20106;-78
2022/07/28 13:29:03;;;;;;;14.00;4.25;;;;;;;;;;5018571;28;20116;-77
2022/07/28 13:31:40;;;;;;;9.55;4.40;;;;;;;;;;5017735;28;20161;-78
2022/07/28 13:34:08;;;;;;;11.07;5.18;;;;;;;;;;5015225;28;20057;-78
2022/07/28 13:36:35;;;;;;;13.52;4.95;;;;;;;;;;5016020;28;20050;-80
2022/07/28 13:39:02;;;;;;;10.27;4.75;;;;;;;;;;5013641;28;20052;-78
2022/07/28 13:41:29;;;;;;;14.68;5.22;;;;;;;;;;5016808;28;20045;-78
2022/07/28 13:44:15;;;;;;;13.75;4.80;;;;;;;;;;5015155;28;20073;-78
2022/07/28 13:46:43;;;;;;;13.57;4.82;;;;;;;;;;5014065;28;20054;-77
2022/07/28 13:49:12;;;;;;;13.65;5.32;;;;;;;;;;5011783;28;20141;-79
2022/07/28 13:51:39;;;;;;;12.48;5.75;;;;;;;;;;5012975;28;20054;-78
2022/07/28 13:54:07;;;;;;;11.38;5.75;;;;;;;;;;5024904;28;20084;-78
2022/07/28 13:56:38;;;;;;;16.08;6.03;;;;;;;;;;5018609;28;20077;-78
2022/07/28 13:59:04;;;;;;;14.13;5.80;;;;;;;;;;5008129;28;20054;-78
2022/07/28 14:01:34;;;;;;;15.60;5.47;;;;;;;;;;5004270;28;20069;-77
2022/07/28 14:04:02;;;;;;;12.98;5.70;;;;;;;;;;5003033;28;20057;-78
2022/07/28 14:06:28;;;;;;;15.07;6.18;;;;;;;;;;5004430;28;20046;-79
2022/07/28 14:08:55;;;;;;;13.82;6.32;;;;;;;;;;5001522;28;20054;-77
2022/07/28 14:11:21;;;;;;;14.75;6.68;;;;;;;;;;5006176;28;20254;-77
2022/07/28 14:13:50;;;;;;;14.55;5.93;;;;;;;;;;5005802;28;20090;-78
2022/07/28 14:16:21;;;;;;;11.45;6.22;;;;;;;;;;5001048;28;20055;-77
2022/07/28 14:18:48;;;;;;;15.60;6.45;;;;;;;;;;4999328;28;20137;-77
2022/07/28 14:21:14;;;;;;;16.40;6.97;;;;;;;;;;4997984;28;20070;-78
2022/07/28 14:23:41;;;;;;;13.13;6.57;;;;;;;;;;5004326;28;20042;-79
2022/07/28 14:26:07;;;;;;;15.70;7.00;;;;;;;;;;5021171;28;20144;-79
2022/07/28 14:28:54;;;;;;;15.80;7.57;;;;;;;;;;5015808;28;20054;-77
2022/07/28 14:31:21;;;;;;;17.77;7.90;;;;;;;;;;5016615;28;20089;-77
2022/07/28 14:33:47;;;;;;;14.93;8.10;;;;;;;;;;5013791;28;20081;-77
2022/07/28 14:36:20;;;;;;;20.38;8.15;;;;;;;;;;5013022;28;20132;-78
2022/07/28 14:38:47;;;;;;;21.48;8.82;;;;;;;;;;5013764;28;20450;-78
2022/07/28 14:41:20;;;;;;;19.15;8.38;;;;;;;;;;5016285;28;20049;-77
2022/07/28 14:43:47;;;;;;;14.55;8.02;;;;;;;;;;5015220;28;20048;-76
2022/07/28 14:46:13;;;;;;;18.63;8.10;;;;;;;;;;5017925;28;20080;-77
2022/07/28 14:48:46;;;;;;;26.58;9.13;;;;;;;;;;5014839;28;20089;-78
2022/07/28 14:51:13;;;;;;;20.50;10.15;;;;;;;;;;5020427;28;20061;-79
2022/07/28 14:53:41;;;;;;;18.08;9.43;;;;;;;;;;5013904;28;20052;-78
2022/07/28 14:56:16;;;;;;;20.23;10.75;;;;;;;;;;5012179;28;20053;-77